createdAt,value
2023-01-27T00:00:14.822Z,97.90
2023-01-27T00:02:42.724Z,97.90
2023-01-27T00:05:11.036Z,98.00
2023-01-27T00:07:38.298Z,97.90
2023-01-27T00:10:05.577Z,97.90
2023-01-27T00:12:50.866Z,98.00
2023-01-27T00:15:17.695Z,97.90
2023-01-27T00:17:44.438Z,97.90
2023-01-27T00:20:11.781Z,97.90
2023-01-27T00:22:57.293Z,97.90
2023-01-27T00:25:24.039Z,98.00
2023-01-27T00:27:50.954Z,97.90
2023-01-27T00:30:18.183Z,98.00
2023-01-27T00:33:03.568Z,98.00
2023-01-27T00:35:30.423Z,97.90
2023-01-27T00:37:57.234Z,97.90
2023-01-27T00:40:24.042Z,97.90
2023-01-27T00:42:50.797Z,98.00
2023-01-27T00:45:36.177Z,97.90
2023-01-27T00:48:02.986Z,97.90
2023-01-27T00:50:29.715Z,98.00
2023-01-27T00:52:59.045Z,98.00
2023-01-27T00:55:25.909Z,98.00
2023-01-27T00:57:52.723Z,97.90
2023-01-27T01:00:19.569Z,97.90
2023-01-27T01:02:46.422Z,98.00
2023-01-27T01:05:13.165Z,97.90
2023-01-27T01:07:39.945Z,97.90
2023-01-27T01:10:07.116Z,97.90
2023-01-27T01:12:33.911Z,98.00
2023-01-27T01:15:01.032Z,97.90
2023-01-27T01:17:29.760Z,98.00
2023-01-27T01:19:56.475Z,98.00
2023-01-27T01:22:23.212Z,98.00
2023-01-27T01:24:50.148Z,98.10
2023-01-27T01:27:17.375Z,98.10
2023-01-27T01:29:44.225Z,98.00
2023-01-27T01:32:11.310Z,98.00
2023-01-27T01:34:38.475Z,98.00
2023-01-27T01:37:05.330Z,97.90
2023-01-27T01:39:32.255Z,97.90
2023-01-27T01:41:59.090Z,98.00
2023-01-27T01:44:27.637Z,97.90
2023-01-27T01:46:54.806Z,97.90
2023-01-27T01:49:34.775Z,97.90
2023-01-27T01:52:05.375Z,97.90
2023-01-27T01:54:38.661Z,97.90
2023-01-27T01:57:08.246Z,97.90
2023-01-27T01:59:37.605Z,98.00
2023-01-27T02:02:06.226Z,97.90
2023-01-27T02:04:37.113Z,97.90
2023-01-27T02:07:03.823Z,97.80
2023-01-27T02:09:30.652Z,97.80
2023-01-27T02:12:00.630Z,98.00
2023-01-27T02:14:27.386Z,98.00
2023-01-27T02:16:54.619Z,98.00
2023-01-27T02:19:24.938Z,97.90
2023-01-27T02:21:52.881Z,98.00
2023-01-27T02:24:20.065Z,98.00
2023-01-27T02:26:46.986Z,98.00
2023-01-27T02:29:18.764Z,97.90
2023-01-27T02:31:45.674Z,97.80
2023-01-27T02:34:14.965Z,97.90
2023-01-27T02:36:50.029Z,98.00
2023-01-27T02:39:18.516Z,97.90
2023-01-27T02:41:48.106Z,97.90
2023-01-27T02:44:14.813Z,97.90
2023-01-27T02:46:41.693Z,97.80
2023-01-27T02:49:08.844Z,97.80
2023-01-27T02:51:35.646Z,97.90
2023-01-27T02:54:02.437Z,97.90
2023-01-27T02:56:29.239Z,97.90
2023-01-27T02:58:56.463Z,97.80
2023-01-27T03:01:24.492Z,97.90
2023-01-27T03:03:52.453Z,97.80
2023-01-27T03:06:19.603Z,97.70
2023-01-27T03:08:46.388Z,97.80
2023-01-27T03:11:13.144Z,97.70
2023-01-27T03:13:40.329Z,97.80
2023-01-27T03:16:26.314Z,97.80
2023-01-27T03:18:53.761Z,97.90
2023-01-27T03:21:20.900Z,97.90
2023-01-27T03:23:49.285Z,97.80
2023-01-27T03:26:16.373Z,97.80
2023-01-27T03:28:43.506Z,98.00
2023-01-27T03:31:19.964Z,97.90
2023-01-27T03:33:47.687Z,97.80
2023-01-27T03:36:33.923Z,97.70
2023-01-27T03:39:19.034Z,97.80
2023-01-27T03:42:04.466Z,97.80
2023-01-27T03:44:49.624Z,97.80
2023-01-27T03:47:16.597Z,97.70
2023-01-27T03:49:43.402Z,97.70
2023-01-27T03:52:10.099Z,97.80
2023-01-27T03:54:37.007Z,98.00
2023-01-27T03:57:06.288Z,97.70
2023-01-27T03:59:33.504Z,97.70
2023-01-27T04:02:20.150Z,97.80
2023-01-27T04:05:05.180Z,97.80
2023-01-27T04:07:34.662Z,97.90
2023-01-27T04:10:01.421Z,97.80
2023-01-27T04:12:28.167Z,97.90
2023-01-27T04:14:54.972Z,97.90
2023-01-27T04:17:22.266Z,97.90
2023-01-27T04:19:48.999Z,97.90
2023-01-27T04:22:16.551Z,97.80
2023-01-27T04:24:43.610Z,97.80
2023-01-27T04:27:15.444Z,97.80
2023-01-27T04:29:42.688Z,97.80
2023-01-27T04:32:10.408Z,97.80
2023-01-27T04:34:37.686Z,97.80
2023-01-27T04:37:05.685Z,97.80
2023-01-27T04:39:32.929Z,97.80
2023-01-27T04:41:59.810Z,97.80
2023-01-27T04:44:26.801Z,97.80
2023-01-27T04:46:54.742Z,97.80
2023-01-27T04:49:22.335Z,97.80
2023-01-27T04:51:49.347Z,97.80
2023-01-27T04:54:16.305Z,97.80
2023-01-27T04:56:55.999Z,97.80
2023-01-27T04:59:22.832Z,97.80
2023-01-27T05:01:50.298Z,97.70
2023-01-27T05:04:17.100Z,97.80
2023-01-27T05:06:43.859Z,97.70
2023-01-27T05:09:10.606Z,97.70
2023-01-27T05:11:37.419Z,97.70
2023-01-27T05:14:04.127Z,97.70
2023-01-27T05:16:30.940Z,97.70
2023-01-27T05:18:57.851Z,97.70
2023-01-27T05:21:28.365Z,98.00
2023-01-27T05:23:55.204Z,97.70
2023-01-27T05:26:23.277Z,97.70
2023-01-27T05:28:50.523Z,97.70
2023-01-27T05:31:18.832Z,97.70
2023-01-27T05:33:46.580Z,97.70
2023-01-27T05:36:15.207Z,97.60
2023-01-27T05:38:42.086Z,97.60
2023-01-27T05:41:10.439Z,97.60
2023-01-27T05:43:39.134Z,97.60
2023-01-27T05:46:10.628Z,97.70
2023-01-27T05:48:38.425Z,97.60
2023-01-27T05:51:05.672Z,97.70
2023-01-27T05:53:32.557Z,97.60
2023-01-27T05:55:59.314Z,97.60
2023-01-27T05:58:26.089Z,97.60
2023-01-27T06:00:53.265Z,97.60
2023-01-27T06:03:20.315Z,97.60
2023-01-27T06:05:56.962Z,97.70
2023-01-27T06:08:24.637Z,97.60
2023-01-27T06:10:52.079Z,97.70
2023-01-27T06:13:19.998Z,97.70
2023-01-27T06:15:47.551Z,97.70
2023-01-27T06:18:14.802Z,97.70
2023-01-27T06:20:41.863Z,97.70
2023-01-27T06:23:09.356Z,97.60
2023-01-27T06:25:37.472Z,97.60
2023-01-27T06:28:04.432Z,97.60
2023-01-27T06:30:31.283Z,97.70
2023-01-27T06:32:58.070Z,97.80
2023-01-27T06:35:24.937Z,97.80
2023-01-27T06:37:51.992Z,97.70
2023-01-27T06:40:19.250Z,97.70
2023-01-27T06:42:46.541Z,97.80
2023-01-27T06:45:13.501Z,97.90
2023-01-27T06:47:40.352Z,97.80
2023-01-27T06:50:07.971Z,97.80
2023-01-27T06:52:34.911Z,97.80
2023-01-27T06:55:01.639Z,97.70
2023-01-27T06:57:28.993Z,97.70
2023-01-27T06:59:55.999Z,97.80
2023-01-27T07:02:22.851Z,97.80
2023-01-27T07:04:49.693Z,97.80
2023-01-27T07:07:16.464Z,97.90
2023-01-27T07:09:52.287Z,97.90
2023-01-27T07:12:19.925Z,97.90
2023-01-27T07:14:46.686Z,97.90
2023-01-27T07:17:13.471Z,98.00
2023-01-27T07:19:40.480Z,97.90
2023-01-27T07:22:07.281Z,97.90
2023-01-27T07:24:34.288Z,97.80
2023-01-27T07:27:01.859Z,97.90
2023-01-27T07:29:28.598Z,97.90
2023-01-27T07:31:55.376Z,97.90
2023-01-27T07:34:22.263Z,97.80
2023-01-27T07:36:49.027Z,97.90
2023-01-27T07:39:15.752Z,98.00
2023-01-27T07:41:43.026Z,98.00
2023-01-27T07:44:10.307Z,98.10
2023-01-27T07:46:37.014Z,98.00
2023-01-27T07:49:03.921Z,98.10
2023-01-27T07:51:30.676Z,98.00
2023-01-27T07:53:57.381Z,98.10
2023-01-27T07:56:24.264Z,97.90
2023-01-27T07:59:12.326Z,98.00
2023-01-27T08:01:41.445Z,97.90
2023-01-27T08:04:08.282Z,98.00
2023-01-27T08:06:35.034Z,97.90
2023-01-27T08:09:01.839Z,98.00
2023-01-27T08:11:28.606Z,98.10
2023-01-27T08:13:55.316Z,97.90
2023-01-27T08:16:22.080Z,98.10
2023-01-27T08:18:48.842Z,98.00
2023-01-27T08:21:15.682Z,97.90
2023-01-27T08:23:42.636Z,98.00
2023-01-27T08:26:09.463Z,98.00
2023-01-27T08:28:37.454Z,98.00
2023-01-27T08:31:08.177Z,98.00
2023-01-27T08:33:35.117Z,98.10
2023-01-27T08:36:03.022Z,98.10
2023-01-27T08:38:29.841Z,98.00
2023-01-27T08:40:56.622Z,97.90
2023-01-27T08:43:23.382Z,98.00
2023-01-27T08:45:52.289Z,98.10
2023-01-27T08:48:19.048Z,98.10
2023-01-27T08:50:45.819Z,98.20
2023-01-27T08:53:12.620Z,98.20
2023-01-27T08:55:39.398Z,98.30
2023-01-27T08:58:06.176Z,98.20
2023-01-27T09:00:33.007Z,98.10
2023-01-27T09:02:59.759Z,98.10
2023-01-27T09:05:26.558Z,98.10
2023-01-27T09:07:53.436Z,98.10
2023-01-27T09:10:20.344Z,98.10
2023-01-27T09:12:47.207Z,98.30
2023-01-27T09:15:14.847Z,98.20
2023-01-27T09:17:41.643Z,98.20
2023-01-27T09:20:10.665Z,98.10
2023-01-27T09:22:41.326Z,98.20
2023-01-27T09:25:09.315Z,98.10
2023-01-27T09:27:39.458Z,98.20
2023-01-27T09:30:07.078Z,98.10
2023-01-27T09:32:33.887Z,98.10
2023-01-27T09:35:00.673Z,98.00
2023-01-27T09:37:28.021Z,98.10
2023-01-27T09:40:02.118Z,98.10
2023-01-27T09:42:31.744Z,98.10
2023-01-27T09:45:19.173Z,98.10
2023-01-27T09:47:48.952Z,98.10
2023-01-27T09:50:20.159Z,98.10
2023-01-27T09:52:58.280Z,98.00
2023-01-27T09:55:51.164Z,98.00
2023-01-27T09:58:20.762Z,98.10
2023-01-27T10:01:02.809Z,98.00
2023-01-27T10:03:29.710Z,98.00
2023-01-27T10:06:08.147Z,98.00
2023-01-27T10:08:35.019Z,98.00
2023-01-27T10:11:20.241Z,98.00
2023-01-27T10:13:46.991Z,98.00
2023-01-27T10:16:13.939Z,98.00
2023-01-27T10:18:50.945Z,98.00
2023-01-27T10:21:25.596Z,98.00
2023-01-27T10:24:08.589Z,97.90
2023-01-27T10:26:42.784Z,97.90
2023-01-27T10:29:31.403Z,98.00
2023-01-27T10:31:58.312Z,98.00
2023-01-27T10:34:25.112Z,97.90
2023-01-27T10:37:04.150Z,97.90
2023-01-27T10:39:33.691Z,98.00
2023-01-27T10:42:20.840Z,98.00
2023-01-27T10:44:53.556Z,98.00
2023-01-27T10:47:23.110Z,98.00
2023-01-27T10:50:13.185Z,98.00
2023-01-27T10:52:46.898Z,98.00
2023-01-27T10:55:19.870Z,98.00
2023-01-27T10:57:52.883Z,98.00
2023-01-27T11:00:57.797Z,98.00
2023-01-27T11:03:40.855Z,98.10
2023-01-27T11:06:10.209Z,98.00
2023-01-27T11:08:38.916Z,97.90
2023-01-27T11:11:25.834Z,98.00
2023-01-27T11:14:02.233Z,98.00
2023-01-27T11:16:32.596Z,98.00
2023-01-27T11:19:01.189Z,98.00
2023-01-27T11:21:30.412Z,97.90
2023-01-27T11:24:00.605Z,97.90
2023-01-27T11:26:44.654Z,97.90
2023-01-27T11:29:29.541Z,97.90
2023-01-27T11:32:05.282Z,98.00
2023-01-27T11:34:44.517Z,97.90
2023-01-27T11:37:20.254Z,98.00
2023-01-27T11:39:47.440Z,98.00
2023-01-27T11:42:14.613Z,97.90
2023-01-27T11:44:42.421Z,97.80
2023-01-27T11:47:13.973Z,97.80
2023-01-27T11:49:43.343Z,97.80
2023-01-27T11:52:15.015Z,97.90
2023-01-27T11:54:56.764Z,97.90
2023-01-27T11:57:24.917Z,97.90
2023-01-27T11:59:54.096Z,97.80
2023-01-27T12:02:30.036Z,97.80
2023-01-27T12:05:04.054Z,97.90
2023-01-27T12:07:48.719Z,97.90
2023-01-27T12:10:30.638Z,97.90
2023-01-27T12:12:59.174Z,97.80
2023-01-27T12:15:27.368Z,97.80
2023-01-27T12:17:56.483Z,97.90
2023-01-27T12:20:31.983Z,97.90
2023-01-27T12:23:01.184Z,97.90
2023-01-27T12:25:42.491Z,97.80
2023-01-27T12:28:18.765Z,97.80
2023-01-27T12:30:47.111Z,97.80
2023-01-27T12:33:20.779Z,97.90
2023-01-27T12:35:49.195Z,97.90
2023-01-27T12:38:21.298Z,97.80
2023-01-27T12:40:49.202Z,97.80
2023-01-27T12:43:16.975Z,97.70
2023-01-27T12:45:44.078Z,97.80
2023-01-27T12:48:13.587Z,97.80
2023-01-27T12:50:40.340Z,97.80
2023-01-27T12:53:12.941Z,97.90
2023-01-27T12:55:41.526Z,97.90
2023-01-27T12:58:26.608Z,97.80
2023-01-27T13:00:53.616Z,97.70
2023-01-27T13:03:21.080Z,97.80
2023-01-27T13:05:48.930Z,97.80
2023-01-27T13:08:17.687Z,97.70
2023-01-27T13:10:55.924Z,97.80
2023-01-27T13:13:27.163Z,97.60
2023-01-27T13:16:01.682Z,97.60
2023-01-27T13:18:32.547Z,97.60
2023-01-27T13:21:03.404Z,97.70
2023-01-27T13:23:31.640Z,97.70
2023-01-27T13:26:04.484Z,97.60
2023-01-27T13:28:52.218Z,97.70
2023-01-27T13:31:25.588Z,97.70
2023-01-27T13:33:52.379Z,97.80
2023-01-27T13:36:19.086Z,97.70
2023-01-27T13:38:48.690Z,97.70
2023-01-27T13:41:19.414Z,97.80
2023-01-27T13:43:51.306Z,97.80
2023-01-27T13:46:27.173Z,97.80
2023-01-27T13:48:55.262Z,97.80
2023-01-27T13:51:23.578Z,97.90
2023-01-27T13:54:00.278Z,97.80
2023-01-27T13:56:47.296Z,97.80
2023-01-27T13:59:32.234Z,97.80
2023-01-27T14:02:07.948Z,97.70
2023-01-27T14:04:41.063Z,97.80
2023-01-27T14:07:19.876Z,97.70
2023-01-27T14:09:49.732Z,97.80
2023-01-27T14:12:16.466Z,97.80
2023-01-27T14:15:09.763Z,97.80
2023-01-27T14:18:00.802Z,97.90
2023-01-27T14:20:31.476Z,97.90
2023-01-27T14:23:07.591Z,97.80
2023-01-27T14:25:41.898Z,97.90
2023-01-27T14:28:17.532Z,97.90
2023-01-27T14:30:47.629Z,97.90
2023-01-27T14:33:14.408Z,98.00
2023-01-27T14:35:47.179Z,98.10
2023-01-27T14:38:17.253Z,98.10
2023-01-27T14:41:10.499Z,98.10
2023-01-27T14:43:40.315Z,97.90
2023-01-27T14:46:16.775Z,97.90
2023-01-27T14:49:01.886Z,97.90
2023-01-27T14:51:47.487Z,97.90
2023-01-27T14:54:27.596Z,98.00
2023-01-27T14:57:13.019Z,98.00
2023-01-27T14:59:48.884Z,98.10
2023-01-27T15:02:33.672Z,98.10
2023-01-27T15:05:08.545Z,97.90
2023-01-27T15:07:44.591Z,98.00
2023-01-27T15:10:14.512Z,98.00
2023-01-27T15:12:54.290Z,98.00
2023-01-27T15:15:47.196Z,97.90
2023-01-27T15:18:32.768Z,98.00
2023-01-27T15:21:00.888Z,98.10
2023-01-27T15:23:27.661Z,98.00
2023-01-27T15:25:55.809Z,98.10
2023-01-27T15:28:28.319Z,98.10
2023-01-27T15:31:13.679Z,98.10
2023-01-27T15:33:51.641Z,98.10
2023-01-27T15:36:27.475Z,98.20
2023-01-27T15:39:09.433Z,98.20
2023-01-27T15:41:53.091Z,98.20
2023-01-27T15:44:25.679Z,98.20
2023-01-27T15:46:53.759Z,98.20
2023-01-27T15:49:28.184Z,98.20
2023-01-27T15:51:56.894Z,98.20
2023-01-27T15:54:32.812Z,98.10
2023-01-27T15:57:03.670Z,98.10
2023-01-27T15:59:32.655Z,98.10
2023-01-27T16:02:01.884Z,98.10
2023-01-27T16:04:32.118Z,98.20
2023-01-27T16:07:04.387Z,98.10
2023-01-27T16:09:41.744Z,98.10
2023-01-27T16:12:23.897Z,98.20
2023-01-27T16:15:10.681Z,98.20
2023-01-27T16:17:55.977Z,98.30
2023-01-27T16:20:28.386Z,98.20
2023-01-27T16:23:05.378Z,98.20
2023-01-27T16:25:32.249Z,98.30
2023-01-27T16:28:14.627Z,98.30
2023-01-27T16:30:47.136Z,98.30
2023-01-27T16:33:20.340Z,98.30
2023-01-27T16:35:53.184Z,98.30
2023-01-27T16:38:25.578Z,98.60
2023-01-27T16:40:54.772Z,98.20
2023-01-27T16:43:44.745Z,98.20
2023-01-27T16:46:30.049Z,98.20
2023-01-27T16:48:56.876Z,98.20
2023-01-27T16:51:28.239Z,98.10
2023-01-27T16:53:57.210Z,98.20
2023-01-27T16:56:28.062Z,98.30
2023-01-27T16:58:58.684Z,98.20
2023-01-27T17:01:27.185Z,98.20
2023-01-27T17:03:55.775Z,98.20
2023-01-27T17:06:22.975Z,98.20
2023-01-27T17:08:49.983Z,98.20
2023-01-27T17:11:18.467Z,98.20
2023-01-27T17:13:45.336Z,98.20
2023-01-27T17:16:23.681Z,98.20
2023-01-27T17:18:52.772Z,98.20
2023-01-27T17:21:31.666Z,98.20
2023-01-27T17:24:03.276Z,98.20
2023-01-27T17:26:30.113Z,98.30
2023-01-27T17:28:57.147Z,98.30
2023-01-27T17:31:24.660Z,98.20
2023-01-27T17:33:56.635Z,98.30
2023-01-27T17:36:23.393Z,98.30
2023-01-27T17:38:51.160Z,98.30
2023-01-27T17:41:33.584Z,98.20
2023-01-27T17:44:01.745Z,98.20
2023-01-27T17:46:30.354Z,98.30
2023-01-27T17:49:05.718Z,98.30
2023-01-27T17:52:02.345Z,98.20
2023-01-27T17:54:38.763Z,98.30
2023-01-27T17:57:08.448Z,98.30
2023-01-27T17:59:37.020Z,98.30
2023-01-27T18:02:07.761Z,98.30
2023-01-27T18:04:40.494Z,98.20
2023-01-27T18:07:07.370Z,98.30
2023-01-27T18:09:34.348Z,98.30
2023-01-27T18:12:04.676Z,98.50
2023-01-27T18:14:32.639Z,98.20
2023-01-27T18:17:06.853Z,98.20
2023-01-27T18:19:34.036Z,98.30
2023-01-27T18:22:10.459Z,98.20
2023-01-27T18:24:37.866Z,98.20
2023-01-27T18:27:18.443Z,98.20
2023-01-27T18:29:45.246Z,98.20
2023-01-27T18:32:15.583Z,98.30
2023-01-27T18:34:49.955Z,98.20
2023-01-27T18:37:28.832Z,98.30
2023-01-27T18:39:59.900Z,98.20
2023-01-27T18:42:28.473Z,98.20
2023-01-27T18:44:55.947Z,98.30
2023-01-27T18:47:27.513Z,98.30
2023-01-27T18:50:00.487Z,98.30
2023-01-27T18:52:27.953Z,98.20
2023-01-27T18:55:07.043Z,98.30
2023-01-27T18:57:33.902Z,98.20
2023-01-27T19:00:00.840Z,98.20
2023-01-27T19:02:27.705Z,98.30
2023-01-27T19:04:54.584Z,98.30
2023-01-27T19:07:21.398Z,98.30
2023-01-27T19:09:48.961Z,98.20
2023-01-27T19:12:15.893Z,98.20
2023-01-27T19:14:42.699Z,98.20
2023-01-27T19:17:16.158Z,98.20
2023-01-27T19:19:42.962Z,98.20
2023-01-27T19:22:13.729Z,98.20
2023-01-27T19:24:40.583Z,98.20
2023-01-27T19:27:10.332Z,98.20
2023-01-27T19:29:37.101Z,98.20
2023-01-27T19:32:04.044Z,98.30
2023-01-27T19:34:30.809Z,98.20
2023-01-27T19:36:57.843Z,98.20
2023-01-27T19:39:24.832Z,98.20
2023-01-27T19:41:51.550Z,98.20
2023-01-27T19:44:18.356Z,98.30
2023-01-27T19:46:45.232Z,98.20
2023-01-27T19:49:16.917Z,98.20
2023-01-27T19:51:43.769Z,98.20
2023-01-27T19:54:10.769Z,98.20
2023-01-27T19:56:37.720Z,98.10
2023-01-27T19:59:04.695Z,98.20
2023-01-27T20:01:31.689Z,98.20
2023-01-27T20:03:58.543Z,98.10
2023-01-27T20:06:28.760Z,98.00
2023-01-27T20:08:57.165Z,98.00
2023-01-27T20:11:24.021Z,98.10
2023-01-27T20:13:50.933Z,98.10
2023-01-27T20:16:17.852Z,98.10
2023-01-27T20:18:44.705Z,98.10
2023-01-27T20:21:14.286Z,98.20
2023-01-27T20:23:41.349Z,98.10
2023-01-27T20:26:12.388Z,98.10
2023-01-27T20:28:39.362Z,98.10
2023-01-27T20:31:10.220Z,98.10
2023-01-27T20:33:36.971Z,98.10
2023-01-27T20:36:13.554Z,98.10
2023-01-27T20:38:40.869Z,98.10
2023-01-27T20:41:08.676Z,98.10
2023-01-27T20:43:35.959Z,98.20
2023-01-27T20:46:04.283Z,98.20
2023-01-27T20:48:31.900Z,98.10
2023-01-27T20:51:02.388Z,98.20
2023-01-27T20:53:32.000Z,98.10
2023-01-27T20:55:59.459Z,98.10
2023-01-27T20:58:27.095Z,98.00
2023-01-27T21:00:54.011Z,98.10
2023-01-27T21:03:22.223Z,98.10
2023-01-27T21:05:49.177Z,98.00
2023-01-27T21:08:16.006Z,98.00
2023-01-27T21:10:42.859Z,98.00
2023-01-27T21:13:09.824Z,98.00
2023-01-27T21:15:36.665Z,98.10
2023-01-27T21:18:03.731Z,98.10
2023-01-27T21:20:30.892Z,98.10
2023-01-27T21:22:57.661Z,98.20
2023-01-27T21:25:25.473Z,98.10
2023-01-27T21:27:52.572Z,98.10
2023-01-27T21:30:19.505Z,98.00
2023-01-27T21:32:46.371Z,98.00
2023-01-27T21:35:13.731Z,98.10
2023-01-27T21:37:40.891Z,98.00
2023-01-27T21:40:08.174Z,98.00
2023-01-27T21:42:53.746Z,98.10
2023-01-27T21:45:20.844Z,98.10
2023-01-27T21:47:47.671Z,98.00
2023-01-27T21:50:15.105Z,98.10
2023-01-27T21:52:45.618Z,98.10
2023-01-27T21:55:14.427Z,98.10
2023-01-27T21:57:41.736Z,98.00
2023-01-27T22:00:10.119Z,98.10
2023-01-27T22:02:37.486Z,98.00
2023-01-27T22:05:04.423Z,98.00
2023-01-27T22:07:34.331Z,98.10
2023-01-27T22:10:01.254Z,98.10
2023-01-27T22:12:28.117Z,98.00
2023-01-27T22:14:54.876Z,98.00
2023-01-27T22:17:21.697Z,97.90
2023-01-27T22:19:48.463Z,97.80
2023-01-27T22:22:15.399Z,97.90
2023-01-27T22:24:42.211Z,98.00
2023-01-27T22:27:09.007Z,98.00
2023-01-27T22:29:35.796Z,98.10
2023-01-27T22:32:03.438Z,98.10
2023-01-27T22:34:30.253Z,98.10
2023-01-27T22:36:57.038Z,98.10
2023-01-27T22:39:23.962Z,98.10
2023-01-27T22:41:50.864Z,98.00
2023-01-27T22:44:18.061Z,98.00
2023-01-27T22:46:44.950Z,98.10
2023-01-27T22:49:11.756Z,98.00
2023-01-27T22:51:38.610Z,98.00
2023-01-27T22:54:05.637Z,98.10
2023-01-27T22:56:32.442Z,98.00
2023-01-27T22:58:59.196Z,98.00
2023-01-27T23:01:25.955Z,98.10
2023-01-27T23:03:52.726Z,98.00
2023-01-27T23:06:19.471Z,97.90
2023-01-27T23:08:46.263Z,97.90
2023-01-27T23:11:13.025Z,97.90
2023-01-27T23:13:39.875Z,97.90
2023-01-27T23:16:06.918Z,97.90
2023-01-27T23:18:33.700Z,97.90
2023-01-27T23:21:04.578Z,97.90
2023-01-27T23:23:31.379Z,97.90
2023-01-27T23:25:58.324Z,97.90
2023-01-27T23:28:25.364Z,97.90
2023-01-27T23:30:52.305Z,98.00
2023-01-27T23:33:19.910Z,97.90
2023-01-27T23:35:47.014Z,97.90
2023-01-27T23:38:30.303Z,97.90
2023-01-27T23:41:02.343Z,98.00
2023-01-27T23:43:31.007Z,98.00
2023-01-27T23:45:58.159Z,98.00
2023-01-27T23:48:25.073Z,98.30
2023-01-27T23:50:51.886Z,97.90
2023-01-27T23:53:18.695Z,98.00
2023-01-27T23:55:53.836Z,98.00
2023-01-27T23:58:20.708Z,98.20
